SVMISBEG

Guest
Details From SVMI - Caracas Simon Bolivar Intl
To SBEG - Eduardo Gomes
Flight Number -
Tags decoded
Created
Modified
Stats Distance 918 nm / 1,701 km
Max Altitude 0 ft / 0 m
Waypoints 2
Social Downloads 0
Likes 0
Share VATSIM

Download

Looking for another format? Having issues loading an existing format? Contact us
Advertisement - Login to hide

Notes

Requested: SVMI SBEG

Route

SVMI SBEG

ID Type Via Altitude Latitude Longitude Leg Dist Tot Dist Heading (true) Name
O SVMI APT - 0 ft / 0 m 10.60312˚ -66.99059˚ - 0 nm - Caracas Simon Bolivar Intl
O SBEG APT - 0 ft / 0 m -3.03861˚ -60.04972˚ 918 nm 918 nm 153° / 153° Eduardo Gomes

Altitude Profile

Advertisement - Login to hide

Weather


0- 5 10 15 20 25 30 35+ Temperature / ° C

Clouds and Precipitation
Forecast for 2017-12-13 18:00 UTC. Updated 2 hours ago

Ground ~20,000 ft ~40,000 ft Winds

SVMI

Details ICAO SVMI (CCS)
Name Caracas Simon Bolivar Intl
Region Venezuela
Timezone America/Caracas (UTC-4.0)
Stats Elevation 235 ft / 72 m (AMSL)
Location 10.603119° -66.990585°
Runways 2
Magnetic Variation 12.288° W

METAR

SVMI 131700Z 36006KT 9999 FEW016 30/23 Q1013

Decode

TAF

TAF SVMI 131000Z 1312/1412 00000KT 9999 FEW016 TX30/19Z TN21/09Z BECMG 1314/1318 05008KT 9999 SCT016

Decode

Departure Runways

ID Width Length Bearing (true) Bearing (mag) Surface Threshold Offset Overrun Length
09 145 ft / 44 m 9,825 ft / 2,995 m 75.92° 88.21° Asphalt 0 ft / 0 m 0 ft / 0 m
10 148 ft / 45 m 11,472 ft / 3,497 m 88.14° 100.43° Asphalt 0 ft / 0 m 200 ft / 61 m
27 145 ft / 44 m 9,825 ft / 2,995 m 255.92° 268.21° Asphalt 0 ft / 0 m 0 ft / 0 m
28 148 ft / 45 m 11,472 ft / 3,497 m 268.15° 280.44° Asphalt 0 ft / 0 m 200 ft / 61 m

SBEG

Details ICAO SBEG (MAO)
Name Eduardo Gomes
Region Brazil
Timezone America/Manaus (UTC-4.0)
Stats Elevation 264 ft / 80 m (AMSL)
Location -3.038611° -60.049723°
Runways 1
Magnetic Variation 15.761° W

METAR

SBEG 131700Z 34003KT 9999 SCT020 SCT100 32/24 Q1010

Decode

TAF

TAF SBEG 131000Z 1312/1412 06002KT 9999 FEW010 TX30/1317Z TN24/1407Z BECMG 1313/1315 09005KT FEW015 BECMG 1316/1318 09008KT 5000 TSRA SCT020 FEW025CB BECMG 1319/1321 04005KT 9999 SCT020 BECMG 1322/1324 13005KT CAVOK RMK PCQ

Decode

Destination Runways

ID Width Length Bearing (true) Bearing (mag) Surface Threshold Offset Overrun Length
10 148 ft / 45 m 8,867 ft / 2,703 m 90.13° 105.89° Asphalt 0 ft / 0 m 215 ft / 66 m
28 148 ft / 45 m 8,867 ft / 2,703 m 270.13° 285.89° Asphalt 0 ft / 0 m 250 ft / 76 m

Approach Navaids

Runway Type Ident Frequency Range Bearing (true) Bearing (mag) Slope Elevation
10 Localiser IEG 110.30 MHz 18 nm / 33 km 90.55° 106.31° - 275 ft / 84 m (AMSL)
10 Glidescope IEG 110.30 MHz 10 nm / 19 km 90.13° 105.89° 3.04° 275 ft / 84 m (AMSL)
10 DME IEG 110.30 MHz 18 nm / 33 km - - - 264 ft / 80 m (AMSL)

Popular Alternatives